AFA189 RCFN-RCFN

Flight info

Callsign AFA189
Flight time 0h 6m
Altitude 1100
Route DCT ZN DCT
Aircraft DA40/L-SBDFGRY/LB2

Departure

Time 2026-05-04 09:58
Airport Taitung Airport (RCFN)

Arrival

Time 2026-05-04 10:04
Airport Taitung Airport (RCFN)
Time Latitude Longitude Altitude Speed Heading
2026-05-04 09:40 22.75939 121.10328 140 ft 0 kts 39°
2026-05-04 09:51 22.75397 121.09923 141 ft 21 kts 219°
2026-05-04 09:51 22.75290 121.09835 141 ft 18 kts 218°
2026-05-04 09:51 22.75201 121.09759 143 ft 15 kts 218°
2026-05-04 09:51 22.75130 121.09698 146 ft 12 kts 218°
2026-05-04 09:52 22.75051 121.09631 147 ft 16 kts 218°
2026-05-04 09:52 22.74968 121.09559 148 ft 14 kts 217°
2026-05-04 09:52 22.74899 121.09499 150 ft 12 kts 221°
2026-05-04 09:52 22.74842 121.09444 151 ft 11 kts 219°
2026-05-04 09:53 22.74762 121.09379 149 ft 16 kts 216°
2026-05-04 09:53 22.74701 121.09369 149 ft 0 kts 128°
2026-05-04 09:55 22.74700 121.09370 149 ft 3 kts 128°
2026-05-04 09:56 22.74658 121.09439 147 ft 9 kts 90°
2026-05-04 09:56 22.74663 121.09451 147 ft 0 kts 39°
2026-05-04 09:56 22.74667 121.09454 147 ft 9 kts 38°
2026-05-04 09:57 22.74860 121.09623 148 ft 59 kts 38°
2026-05-04 09:57 22.75234 121.09954 286 ft 72 kts 41°
2026-05-04 09:57 22.75621 121.10285 515 ft 71 kts 38°
2026-05-04 09:57 22.76017 121.10630 613 ft 80 kts 40°
2026-05-04 09:58 22.76440 121.11013 827 ft 75 kts 36°
2026-05-04 09:58 22.76892 121.11305 967 ft 80 kts
2026-05-04 09:58 22.77309 121.10963 1189 ft 79 kts 312°
2026-05-04 10:00 22.74532 121.07220 1059 ft 102 kts 218°
2026-05-04 10:00 22.73899 121.06980 965 ft 98 kts 168°
2026-05-04 10:02 22.75103 121.09831 144 ft 54 kts 38°
2026-05-04 10:04 22.75881 121.10350 141 ft 2 kts 31°
2026-05-04 10:04 22.75906 121.10368 140 ft 6 kts 25°
2026-05-04 10:04 22.75930 121.10365 140 ft 2 kts 317°
2026-05-04 10:04 22.75941 121.10345 140 ft 2 kts 257°
2026-05-04 10:05 22.75931 121.10329 140 ft 2 kts 266°
2026-05-04 10:05 22.75934 121.10324 140 ft 0 kts 12°
2026-05-04 10:05 22.75935 121.10324 140 ft 0 kts 38°